Time;durP1;ratioP1;P1;durP2;ratioP2;P2;SDS_P1;SDS_P2;PMS_P1;PMS_P2;Temp;Humidity;BMP_temperature;BMP_pressure;BME280_temperature;BME280_humidity;BME280_pressure;Samples;Min_cycle;Max_cycle;Signal;HPM_P1;HPM_P2
2023/04/22 00:00:47;;;;;;;11.65;8.35;;;10.20;99.90;;;9.49;80.76;100034.34;4137552;28;20032;-76
2023/04/22 00:02:47;;;;;;;11.50;8.00;;;10.20;99.90;;;9.51;80.00;100044.69;4138268;28;20033;-76
2023/04/22 00:04:49;;;;;;;10.63;7.95;;;10.20;99.90;;;9.53;80.30;100048.00;4129137;28;20407;-76
2023/04/22 00:06:50;;;;;;;10.52;8.05;;;10.20;99.90;;;9.53;80.32;100043.53;4122023;28;20030;-76
2023/04/22 00:08:51;;;;;;;9.18;6.75;;;10.20;99.90;;;9.53;80.91;100048.00;4136152;28;20053;-76
2023/04/22 00:10:51;;;;;;;9.45;6.18;;;10.20;99.90;;;9.52;81.53;100055.06;4127383;28;20038;-76
2023/04/22 00:12:52;;;;;;;9.20;7.25;;;10.20;99.90;;;9.50;81.61;100059.66;4136622;28;20506;-76
2023/04/22 00:14:53;;;;;;;8.52;6.65;;;10.20;99.90;;;9.43;82.39;100049.00;4125930;28;20085;-76
2023/04/22 00:16:54;;;;;;;10.45;7.38;;;10.20;99.90;;;9.42;81.81;100051.78;4135207;28;20509;-76
2023/04/22 00:18:55;;;;;;;9.88;8.10;;;10.20;99.90;;;9.36;82.47;100041.91;4125739;28;20053;-76
2023/04/22 00:20:56;;;;;;;12.18;7.90;;;10.10;99.90;;;9.39;81.98;100041.59;4136542;28;20026;-76
2023/04/22 00:22:57;;;;;;;8.32;6.78;;;10.20;99.90;;;9.41;82.16;100035.16;4136413;28;20514;-76
2023/04/22 00:24:58;;;;;;;10.13;7.63;;;10.10;99.90;;;9.39;82.16;100036.31;4122758;28;20034;-76
2023/04/22 00:26:59;;;;;;;11.05;7.80;;;10.10;99.90;;;9.38;82.42;100035.50;4121556;28;20494;-76
2023/04/22 00:29:00;;;;;;;9.00;7.25;;;10.10;99.90;;;9.34;82.61;100009.69;4121369;28;20038;-76
2023/04/22 00:31:03;;;;;;;15.35;7.55;;;10.10;99.90;;;9.38;82.48;100018.88;4131754;28;20034;-76
2023/04/22 00:33:04;;;;;;;9.35;7.35;;;10.10;99.90;;;9.37;82.49;100011.97;4134314;28;20050;-77
2023/04/22 00:35:06;;;;;;;9.82;7.85;;;10.10;99.90;;;9.34;81.86;99993.88;4125896;28;20034;-76
2023/04/22 00:37:07;;;;;;;11.90;7.75;;;10.10;99.90;;;9.38;81.44;100003.06;4137570;28;20506;-76
2023/04/22 00:39:08;;;;;;;10.15;7.43;;;10.10;99.90;;;9.36;81.26;100007.69;4136490;28;20027;-76
2023/04/22 00:41:10;;;;;;;10.02;7.57;;;10.10;99.90;;;9.33;81.56;99994.88;4134118;28;20031;-77
2023/04/22 00:43:11;;;;;;;9.30;7.45;;;10.10;99.90;;;9.39;81.44;100010.00;4134351;28;20032;-76
2023/04/22 00:45:18;;;;;;;12.00;8.32;;;10.10;99.90;;;9.37;81.60;99996.19;4135831;28;20046;-76
2023/04/22 00:47:20;;;;;;;10.18;6.82;;;10.10;99.90;;;9.42;81.83;100009.66;4131647;28;20053;-76
2023/04/22 00:49:21;;;;;;;13.70;7.75;;;10.10;99.90;;;9.41;81.94;100011.47;4135992;28;20503;-76
2023/04/22 00:51:22;;;;;;;12.70;7.63;;;10.10;99.90;;;9.43;81.69;100008.69;4124302;28;20034;-77
2023/04/22 00:53:23;;;;;;;8.68;6.82;;;10.10;99.90;;;9.44;81.45;100002.41;4135991;28;20061;-77
2023/04/22 00:55:24;;;;;;;9.15;6.63;;;10.10;99.90;;;9.43;81.19;100000.78;4137199;28;20026;-77
2023/04/22 00:57:26;;;;;;;10.10;7.93;;;10.10;99.90;;;9.39;81.44;99988.94;4135613;28;20510;-77
2023/04/22 00:59:27;;;;;;;9.13;7.22;;;10.20;99.90;;;9.44;81.51;99991.88;4123609;28;20031;-76
2023/04/22 01:01:29;;;;;;;9.07;7.07;;;10.10;99.90;;;9.37;81.27;99980.41;4137165;28;20070;-76
2023/04/22 01:03:31;;;;;;;10.00;7.47;;;10.20;99.90;;;9.41;80.70;99987.78;4135813;28;20038;-76
2023/04/22 01:05:33;;;;;;;9.82;7.93;;;10.10;99.90;;;9.41;80.75;99987.78;4121558;28;20407;-76
2023/04/22 01:07:35;;;;;;;8.68;7.10;;;10.10;99.90;;;9.38;80.53;99982.03;4125936;28;20472;-77
2023/04/22 01:09:37;;;;;;;9.77;7.03;;;10.20;99.90;;;9.45;80.54;99993.53;4136954;28;20029;-77
2023/04/22 01:11:38;;;;;;;10.00;7.15;;;10.10;99.90;;;9.45;80.45;99988.28;4135828;28;20061;-76
2023/04/22 01:13:39;;;;;;;10.77;7.50;;;10.20;99.90;;;9.46;81.27;100000.47;4135240;28;20026;-77
2023/04/22 01:15:40;;;;;;;9.45;7.20;;;10.20;99.90;;;9.41;81.48;100002.75;4119618;28;20031;-76
2023/04/22 01:17:41;;;;;;;10.93;7.55;;;10.20;99.90;;;9.45;80.96;100012.78;4119615;28;20027;-76
2023/04/22 01:19:42;;;;;;;10.07;7.53;;;10.20;99.90;;;9.44;81.86;100026.09;4120708;28;20027;-76
2023/04/22 01:21:46;;;;;;;10.45;7.50;;;10.20;99.90;;;9.46;82.36;100026.78;4119319;28;20025;-76
2023/04/22 01:23:47;;;;;;;10.13;7.78;;;10.10;99.90;;;9.45;82.07;100023.31;4124153;28;20033;-76
2023/04/22 01:25:49;;;;;;;9.00;7.28;;;10.20;99.90;;;9.44;82.18;100019.03;4127539;28;20034;-76
2023/04/22 01:27:51;;;;;;;8.40;6.70;;;10.20;99.90;;;9.41;82.20;100018.53;4130894;28;20030;-76
2023/04/22 01:29:52;;;;;;;8.25;6.72;;;10.10;99.90;;;9.43;82.29;100012.16;4135030;28;20026;-76
2023/04/22 01:31:54;;;;;;;10.30;8.25;;;10.20;99.90;;;9.39;82.42;100005.56;4124380;28;20116;-76
2023/04/22 01:33:56;;;;;;;9.38;7.07;;;10.20;99.90;;;9.34;82.21;99997.34;4135404;28;20018;-77
2023/04/22 01:35:57;;;;;;;10.30;7.45;;;10.10;99.90;;;9.33;82.02;99993.06;4130610;28;20034;-76
2023/04/22 01:37:58;;;;;;;10.85;7.30;;;10.10;99.90;;;9.35;82.38;100004.25;4135227;28;20080;-77
2023/04/22 01:39:59;;;;;;;10.63;7.82;;;10.10;99.90;;;9.31;82.02;99999.47;4136567;28;20038;-76
2023/04/22 01:42:02;;;;;;;9.43;7.20;;;10.10;99.90;;;9.35;82.79;99996.34;4135175;28;20037;-76
2023/04/22 01:44:03;;;;;;;9.60;7.57;;;10.10;99.90;;;9.32;82.56;99993.22;4123288;28;20035;-77
2023/04/22 01:46:05;;;;;;;10.57;7.20;;;10.10;99.90;;;9.30;82.43;99989.94;4120136;28;20037;-76
2023/04/22 01:48:06;;;;;;;9.82;7.00;;;10.10;99.90;;;9.30;83.06;99987.31;4124417;28;20509;-76
2023/04/22 01:50:07;;;;;;;10.68;7.07;;;10.00;99.90;;;9.28;83.67;99986.66;4128300;28;20074;-76
2023/04/22 01:52:08;;;;;;;10.40;7.30;;;10.00;99.90;;;9.22;82.74;99976.78;4136274;28;20113;-77
2023/04/22 01:54:10;;;;;;;9.98;7.03;;;10.00;99.90;;;9.24;82.94;99980.91;4120454;28;20031;-76
2023/04/22 01:56:11;;;;;;;9.85;7.97;;;10.00;99.90;;;9.27;83.17;99990.25;4124047;28;20018;-76
2023/04/22 01:58:12;;;;;;;13.20;7.90;;;10.00;99.90;;;9.23;82.58;99983.69;4127020;28;20096;-76
2023/04/22 02:00:13;;;;;;;9.07;7.07;;;10.00;99.90;;;9.24;82.53;99995.84;4134879;28;20076;-76
2023/04/22 02:02:14;;;;;;;9.40;6.97;;;10.00;99.90;;;9.26;82.61;99999.13;4151299;28;20038;-76
2023/04/22 02:04:15;;;;;;;9.85;7.32;;;10.00;99.90;;;9.26;82.73;100009.66;4136447;28;20061;-76
2023/04/22 02:06:16;;;;;;;9.15;6.63;;;10.00;99.90;;;9.24;83.01;99993.22;4136327;28;20033;-76
2023/04/22 02:08:17;;;;;;;11.02;7.25;;;10.00;99.90;;;9.24;83.14;99987.97;4134987;28;20030;-77
2023/04/22 02:10:18;;;;;;;9.20;7.10;;;10.00;99.90;;;9.24;82.87;100001.13;4133018;28;20125;-76
2023/04/22 02:12:19;;;;;;;8.10;6.68;;;10.00;99.90;;;9.26;82.65;100004.41;4135104;28;20549;-77
2023/04/22 02:14:19;;;;;;;10.68;7.22;;;10.00;99.90;;;9.26;82.45;100001.78;4135961;28;20027;-76
2023/04/22 02:16:21;;;;;;;11.13;6.97;;;10.00;99.90;;;9.25;83.13;100002.78;4136134;28;20104;-76
2023/04/22 02:18:21;;;;;;;9.13;6.80;;;10.00;99.90;;;9.22;83.45;100003.94;4134926;28;20019;-77
2023/04/22 02:20:22;;;;;;;8.85;7.30;;;10.00;99.90;;;9.20;84.05;99995.38;4136531;28;20034;-77
2023/04/22 02:22:23;;;;;;;8.65;6.65;;;9.90;99.90;;;9.22;84.12;99988.16;4134677;28;20038;-77
2023/04/22 02:24:25;;;;;;;9.63;6.38;;;9.90;99.90;;;9.19;84.48;99979.75;4130313;28;20030;-76
2023/04/22 02:26:26;;;;;;;8.98;5.93;;;9.90;99.90;;;9.19;85.01;99983.22;4134749;28;20030;-76
2023/04/22 02:28:27;;;;;;;7.93;6.20;;;9.90;99.90;;;9.18;85.62;99992.09;4105894;28;20031;-76
2023/04/22 02:30:28;;;;;;;7.22;6.32;;;9.90;99.90;;;9.16;85.68;99988.81;4134777;28;20022;-76
2023/04/22 02:32:29;;;;;;;10.48;7.03;;;9.90;99.90;;;9.18;85.32;99991.25;4134806;28;20042;-77
2023/04/22 02:34:30;;;;;;;9.05;7.47;;;9.90;99.90;;;9.17;85.75;99992.25;4123114;28;20509;-76
2023/04/22 02:36:33;;;;;;;9.95;7.78;;;9.90;99.90;;;9.15;85.54;99986.31;4121360;28;20034;-77
2023/04/22 02:38:34;;;;;;;10.10;7.63;;;9.90;99.90;;;9.12;85.52;99987.47;4136014;28;20475;-76
2023/04/22 02:40:35;;;;;;;10.18;7.75;;;9.90;99.90;;;9.11;85.02;99991.09;4135875;28;20026;-77
2023/04/22 02:42:36;;;;;;;9.18;8.07;;;9.90;99.90;;;9.14;84.29;99996.03;4134642;28;20041;-76
2023/04/22 02:44:36;;;;;;;10.32;8.65;;;9.90;99.90;;;9.13;84.49;99994.41;4119568;28;20426;-76
2023/04/22 02:46:37;;;;;;;9.68;7.43;;;9.90;99.90;;;9.17;83.99;99992.25;4124755;28;20027;-76
2023/04/22 02:48:38;;;;;;;9.77;7.53;;;9.90;99.90;;;9.14;83.79;99989.97;4127982;28;20035;-76
2023/04/22 02:50:39;;;;;;;9.40;7.13;;;9.90;99.90;;;9.17;83.72;100002.78;4130875;28;20039;-76
2023/04/22 02:52:40;;;;;;;9.23;7.20;;;9.90;99.90;;;9.17;82.98;99997.53;4134537;28;20022;-76
2023/04/22 02:54:41;;;;;;;8.02;6.57;;;9.90;99.90;;;9.16;83.34;100001.97;4135884;28;20041;-76
2023/04/22 02:56:42;;;;;;;9.82;7.72;;;9.90;99.90;;;9.17;83.45;99998.31;4134526;28;20553;-76
2023/04/22 02:58:42;;;;;;;9.77;7.00;;;9.90;99.90;;;9.19;83.37;100003.44;4135586;28;20027;-76
2023/04/22 03:00:43;;;;;;;9.00;7.00;;;9.90;99.90;;;9.18;83.67;100007.03;4135640;28;20560;-76
2023/04/22 03:02:44;;;;;;;9.13;7.35;;;9.90;99.90;;;9.17;83.35;100002.78;4135889;28;20029;-77
2023/04/22 03:04:45;;;;;;;8.32;6.60;;;9.90;99.90;;;9.14;83.47;99995.22;4118297;28;20039;-77
2023/04/22 03:06:48;;;;;;;8.77;6.75;;;9.90;99.90;;;9.20;83.33;100012.97;4130677;28;20490;-77
2023/04/22 03:08:49;;;;;;;8.98;6.60;;;9.90;99.90;;;9.18;83.78;100007.03;4150613;28;20034;-76
2023/04/22 03:10:50;;;;;;;9.60;7.18;;;9.90;99.90;;;9.18;84.59;100017.56;4135707;28;20054;-76
2023/04/22 03:12:51;;;;;;;10.55;8.05;;;9.90;99.90;;;9.16;85.00;100019.56;4134535;28;20030;-76
2023/04/22 03:14:52;;;;;;;11.05;7.95;;;9.90;99.90;;;9.15;84.73;100012.63;4131203;28;20018;-76
2023/04/22 03:16:53;;;;;;;10.57;7.55;;;9.90;99.90;;;9.11;85.42;100013.97;4135562;28;20547;-77
2023/04/22 03:18:54;;;;;;;9.68;8.10;;;9.90;99.90;;;9.08;85.72;100004.56;4134364;28;20026;-77
2023/04/22 03:20:54;;;;;;;10.02;7.90;;;9.90;99.90;;;9.11;85.83;100024.50;4134764;28;20035;-76
2023/04/22 03:22:55;;;;;;;11.23;7.82;;;9.80;99.90;;;9.10;87.30;100017.56;4138741;28;20022;-77
2023/04/22 03:24:56;;;;;;;11.48;7.05;;;9.80;99.90;;;9.07;87.55;100016.09;4138466;28;20045;-76
2023/04/22 03:26:57;;;;;;;9.35;6.80;;;9.80;99.90;;;9.06;87.93;100018.88;4138767;28;20033;-77
2023/04/22 03:28:58;;;;;;;9.90;8.23;;;9.80;99.90;;;9.02;87.79;100015.75;4138377;28;20030;-76
2023/04/22 03:30:59;;;;;;;9.25;7.85;;;9.80;99.90;;;9.03;89.26;100019.22;4138507;28;20085;-76
2023/04/22 03:32:59;;;;;;;9.40;7.32;;;9.80;99.90;;;9.02;88.66;100033.38;4138400;28;20019;-77
2023/04/22 03:35:00;;;;;;;11.25;8.75;;;9.80;99.90;;;8.99;88.54;100029.22;4137353;28;20457;-77
2023/04/22 03:37:01;;;;;;;9.75;7.85;;;9.70;99.90;;;9.00;88.70;100032.69;4138492;28;20441;-76
2023/04/22 03:39:02;;;;;;;10.77;7.30;;;9.80;99.90;;;9.02;88.92;100038.63;4138396;28;20904;-76
2023/04/22 03:41:03;;;;;;;10.10;7.75;;;9.70;99.90;;;8.98;89.47;100032.88;4138213;28;20058;-77
2023/04/22 03:43:04;;;;;;;11.45;8.75;;;9.70;99.90;;;8.98;89.71;100021.50;4134843;28;20029;-77
2023/04/22 03:45:05;;;;;;;9.40;7.25;;;9.70;99.90;;;8.96;89.57;100023.50;4121765;28;20047;-76
2023/04/22 03:47:06;;;;;;;10.05;7.70;;;9.70;99.90;;;8.94;89.95;100036.78;4122182;28;20031;-77
2023/04/22 03:49:07;;;;;;;10.57;8.82;;;9.70;99.90;;;8.86;89.82;100040.25;4135075;28;20041;-76
2023/04/22 03:51:09;;;;;;;9.68;7.68;;;9.70;99.90;;;8.88;89.87;100033.00;4138344;28;20506;-76
2023/04/22 03:53:10;;;;;;;9.68;7.93;;;9.70;99.90;;;8.90;90.04;100019.69;4138203;28;20085;-76
2023/04/22 03:55:11;;;;;;;10.77;8.20;;;9.60;99.90;;;8.92;90.05;100023.00;4136913;28;20049;-76
2023/04/22 03:57:12;;;;;;;10.50;8.48;;;9.60;99.90;;;8.92;90.36;100022.16;4135029;28;20049;-76
2023/04/22 03:59:13;;;;;;;10.32;8.13;;;9.70;99.90;;;8.90;90.46;100025.78;4136969;28;20026;-76
2023/04/22 04:01:14;;;;;;;8.77;7.43;;;9.70;99.90;;;8.92;90.51;100022.16;4128253;28;20034;-77
2023/04/22 04:03:14;;;;;;;10.55;8.10;;;9.70;99.90;;;8.94;90.14;100023.66;4136804;28;20023;-77
2023/04/22 04:05:15;;;;;;;10.55;8.02;;;9.70;99.90;;;8.92;90.22;100014.28;4138009;28;20081;-77
2023/04/22 04:07:16;;;;;;;10.35;8.35;;;9.70;99.90;;;8.92;90.31;100015.09;4136754;28;20453;-77
2023/04/22 04:09:17;;;;;;;9.88;8.60;;;9.70;99.90;;;8.93;89.96;100010.66;4126501;28;20034;-76
2023/04/22 04:11:18;;;;;;;11.88;8.70;;;9.70;99.90;;;8.92;89.97;100006.38;4130818;28;20031;-76
2023/04/22 04:13:19;;;;;;;10.38;8.13;;;9.70;99.90;;;8.89;89.67;100002.28;4136408;28;20222;-76
2023/04/22 04:15:20;;;;;;;12.43;9.10;;;9.60;99.90;;;8.90;89.53;100002.09;4135775;28;20026;-76
2023/04/22 04:17:24;;;;;;;10.65;7.78;;;9.70;99.90;;;8.84;89.56;100002.75;4127193;28;20456;-77
2023/04/22 04:19:25;;;;;;;10.25;7.88;;;9.60;99.90;;;8.83;89.14;100003.75;4136211;28;20062;-76
2023/04/22 04:21:26;;;;;;;9.32;8.00;;;9.60;99.90;;;8.82;89.63;100007.34;4133894;28;20039;-77
2023/04/22 04:23:27;;;;;;;10.45;7.63;;;9.60;99.90;;;8.79;89.77;100006.84;4137752;28;20376;-77
2023/04/22 04:25:37;;;;;;;8.75;7.35;;;9.60;99.90;;;8.76;89.74;100004.56;4136508;28;20026;-76
2023/04/22 04:27:40;;;;;;;11.63;7.43;;;9.50;99.90;;;8.73;89.95;100003.06;4131635;28;20030;-76
2023/04/22 04:29:41;;;;;;;10.43;8.07;;;9.50;99.90;;;8.66;90.49;99999.44;4137196;28;20022;-76
2023/04/22 04:31:42;;;;;;;9.10;8.02;;;9.50;99.90;;;8.64;91.78;100005.84;4136535;28;20026;-76
2023/04/22 04:33:42;;;;;;;10.52;8.38;;;9.40;99.90;;;8.59;92.42;99997.63;4127110;28;20022;-76
2023/04/22 04:35:43;;;;;;;11.18;7.93;;;9.40;99.90;;;8.56;92.20;100008.47;4136239;28;20022;-77
2023/04/22 04:37:45;;;;;;;11.63;8.65;;;9.40;99.90;;;8.51;92.94;99995.78;4137535;28;20398;-76
2023/04/22 04:39:47;;;;;;;11.50;8.95;;;9.30;99.90;;;8.55;92.70;100001.56;4136313;28;20026;-76
2023/04/22 04:41:48;;;;;;;12.43;9.45;;;9.40;99.90;;;8.54;93.32;100000.72;4127403;28;20022;-76
2023/04/22 04:43:49;;;;;;;11.70;8.90;;;9.40;99.90;;;8.56;94.64;99993.53;4127662;28;20042;-76
2023/04/22 04:45:50;;;;;;;9.77;7.90;;;9.40;99.90;;;8.57;94.07;99996.97;4121426;28;20042;-76
2023/04/22 04:47:51;;;;;;;10.82;8.40;;;9.40;99.90;;;8.56;94.45;99993.53;4130527;28;20450;-77
2023/04/22 04:49:53;;;;;;;11.75;8.32;;;9.40;99.90;;;8.54;94.71;99990.22;4135759;28;20023;-76
2023/04/22 04:51:54;;;;;;;11.02;8.30;;;9.40;99.90;;;8.62;94.09;100002.56;4136024;28;20026;-76
2023/04/22 04:53:55;;;;;;;11.40;8.73;;;9.40;99.90;;;8.62;93.86;99992.88;4136884;28;20022;-76
2023/04/22 04:55:55;;;;;;;10.70;8.95;;;9.40;99.90;;;8.66;94.06;100006.53;4133967;28;20083;-76
2023/04/22 04:57:56;;;;;;;9.48;7.68;;;9.40;99.90;;;8.69;94.50;100000.94;4134450;28;20048;-76
2023/04/22 04:59:57;;;;;;;8.95;7.25;;;9.40;99.90;;;8.67;94.46;100002.88;4136450;28;20022;-76
2023/04/22 05:01:58;;;;;;;12.15;8.50;;;9.50;99.90;;;8.67;94.57;99997.63;4135572;28;20491;-77
2023/04/22 05:03:59;;;;;;;12.00;9.73;;;9.40;99.90;;;8.65;94.59;100005.69;4150931;28;20026;-76
2023/04/22 05:06:00;;;;;;;10.50;8.52;;;9.40;99.90;;;8.68;94.87;100015.06;4131138;28;20073;-76
2023/04/22 05:08:00;;;;;;;11.45;8.30;;;9.40;99.90;;;8.65;94.93;100010.13;4120945;28;20038;-76
2023/04/22 05:10:02;;;;;;;12.10;8.88;;;9.50;99.90;;;8.70;94.86;100019.16;4131286;28;20042;-76
2023/04/22 05:12:04;;;;;;;10.20;8.25;;;9.40;99.90;;;8.73;94.77;100002.25;4135370;28;20022;-77
2023/04/22 05:14:05;;;;;;;11.77;8.93;;;9.50;99.90;;;8.73;95.04;100000.44;4136736;28;20050;-76
2023/04/22 05:16:06;;;;;;;10.27;8.23;;;9.50;99.90;;;8.74;94.94;100012.63;4135710;28;20054;-76
2023/04/22 05:18:08;;;;;;;10.60;7.93;;;9.50;99.90;;;8.76;94.75;100009.81;4132411;28;20099;-76
2023/04/22 05:20:09;;;;;;;8.70;7.07;;;9.50;99.90;;;8.79;94.74;100018.19;4135106;28;20080;-76
2023/04/22 05:22:10;;;;;;;8.63;7.03;;;9.50;99.90;;;8.81;94.55;100021.47;4125598;28;20030;-76
2023/04/22 05:24:11;;;;;;;9.57;7.90;;;9.60;99.90;;;8.83;94.58;100035.31;4135553;28;20037;-76
2023/04/22 05:26:12;;;;;;;9.35;8.20;;;9.60;99.90;;;8.86;94.85;100045.50;4130593;28;20561;-76
2023/04/22 05:28:13;;;;;;;9.80;8.48;;;9.60;99.90;;;8.84;94.83;100031.69;4133226;28;20050;-76
2023/04/22 05:30:14;;;;;;;10.85;8.90;;;9.60;99.90;;;8.85;95.31;100037.75;4135481;28;20030;-77
2023/04/22 05:32:15;;;;;;;11.80;8.70;;;9.60;99.90;;;8.84;95.61;100044.03;4136663;28;20037;-77
2023/04/22 05:34:16;;;;;;;10.77;8.77;;;9.60;99.90;;;8.83;95.60;100053.72;4135327;28;20037;-77
2023/04/22 05:36:17;;;;;;;10.32;8.05;;;9.60;99.90;;;8.86;95.47;100039.41;4133266;28;20019;-77
2023/04/22 05:38:18;;;;;;;9.07;7.60;;;9.70;99.90;;;8.86;95.83;100042.06;4135422;28;20034;-77
2023/04/22 05:40:19;;;;;;;10.25;7.47;;;9.70;99.90;;;8.95;95.83;100064.75;4126621;28;20026;-76
2023/04/22 05:42:19;;;;;;;10.45;8.50;;;9.70;99.90;;;8.97;95.61;100062.78;4136458;28;20469;-77
2023/04/22 05:44:20;;;;;;;12.70;8.45;;;9.70;99.90;;;9.00;95.42;100061.63;4120684;28;20042;-77
2023/04/22 05:46:22;;;;;;;12.18;8.82;;;9.70;99.90;;;9.00;95.37;100049.28;4120421;28;20039;-76
2023/04/22 05:48:23;;;;;;;10.45;8.25;;;9.80;99.90;;;9.03;95.54;100058.66;4126035;28;20034;-76
2023/04/22 05:50:24;;;;;;;12.57;9.32;;;9.80;99.90;;;9.06;95.31;100060.97;4134335;28;20046;-77
2023/04/22 05:52:24;;;;;;;11.07;8.77;;;9.80;99.90;;;9.09;95.87;100065.91;4122965;28;20114;-76
2023/04/22 05:54:25;;;;;;;9.57;7.75;;;9.80;99.90;;;9.14;95.74;100067.06;4122583;28;20058;-77
2023/04/22 05:56:27;;;;;;;11.45;8.88;;;9.90;99.90;;;9.20;95.56;100076.13;4131828;28;20022;-77
2023/04/22 05:58:27;;;;;;;10.27;8.73;;;10.00;99.90;;;9.24;95.96;100083.53;4128553;28;20086;-77
2023/04/22 06:00:28;;;;;;;9.73;8.07;;;10.00;99.90;;;9.30;95.66;100088.13;4142965;28;20038;-77
2023/04/22 06:02:29;;;;;;;11.15;8.27;;;10.00;99.90;;;9.40;95.40;100095.88;4118929;28;20450;-76
2023/04/22 06:04:30;;;;;;;9.75;8.07;;;10.10;99.90;;;9.46;95.18;100082.06;4126446;28;20026;-76
2023/04/22 06:06:31;;;;;;;10.48;8.77;;;10.20;99.90;;;9.54;95.25;100092.59;4136180;28;20034;-76
2023/04/22 06:08:32;;;;;;;10.30;8.63;;;10.20;99.90;;;9.56;95.12;100090.59;4134960;28;20056;-76
2023/04/22 06:10:33;;;;;;;10.38;8.68;;;10.30;99.90;;;9.62;95.32;100089.09;4131557;28;20039;-76
2023/04/22 06:12:34;;;;;;;9.98;8.10;;;10.30;99.90;;;9.72;95.29;100105.56;4124844;28;20045;-76
2023/04/22 06:14:35;;;;;;;9.65;7.70;;;10.40;99.90;;;9.82;94.96;100099.16;4135912;28;20030;-77
2023/04/22 06:16:36;;;;;;;8.57;7.15;;;10.50;99.90;;;9.88;94.23;100095.03;4136080;28;20018;-75
2023/04/22 06:18:37;;;;;;;9.55;7.47;;;10.50;99.90;;;9.90;94.25;100098.31;4134686;28;20042;-76
2023/04/22 06:20:38;;;;;;;8.73;7.13;;;10.60;99.90;;;9.87;94.24;100104.75;4129794;28;20418;-76
2023/04/22 06:22:39;;;;;;;10.90;8.05;;;10.50;99.90;;;9.73;93.57;100099.31;4119959;28;20039;-76
2023/04/22 06:24:40;;;;;;;11.30;8.02;;;10.50;99.90;;;9.60;93.81;100105.09;4118683;28;20085;-76
2023/04/22 06:26:41;;;;;;;12.10;8.85;;;10.40;99.90;;;9.56;93.49;100111.66;4118642;28;20027;-76
2023/04/22 06:28:42;;;;;;;9.82;7.90;;;10.30;99.90;;;9.53;93.64;100117.25;4119871;28;20035;-76
2023/04/22 06:30:42;;;;;;;10.93;7.80;;;10.30;99.90;;;9.56;93.27;100116.94;4128356;28;20034;-76
2023/04/22 06:32:43;;;;;;;8.75;7.22;;;10.30;99.90;;;9.56;92.88;100116.94;4135919;28;20042;-76
2023/04/22 06:34:44;;;;;;;8.43;6.78;;;10.30;99.90;;;9.73;92.90;100131.75;4134526;28;20506;-76
2023/04/22 06:36:45;;;;;;;8.43;6.78;;;10.40;99.90;;;9.99;92.89;100126.28;4132678;28;20371;-76
2023/04/22 06:38:46;;;;;;;8.25;6.78;;;10.60;99.90;;;10.39;92.29;100125.41;4134809;28;20109;-76
2023/04/22 06:40:47;;;;;;;10.88;7.78;;;10.90;99.90;;;10.75;90.81;100126.56;4129660;28;20027;-76
2023/04/22 06:42:47;;;;;;;9.23;6.90;;;11.10;99.90;;;11.05;89.39;100133.66;4131647;28;20038;-76
2023/04/22 06:44:48;;;;;;;9.30;7.38;;;11.40;99.90;;;11.22;88.70;100118.56;4135546;28;20054;-76
2023/04/22 06:46:49;;;;;;;9.07;7.70;;;11.60;99.90;;;11.44;87.93;100122.22;4134734;28;20109;-76
2023/04/22 06:48:50;;;;;;;9.57;7.45;;;11.80;99.90;;;11.53;86.14;100121.13;4129895;28;20022;-78
2023/04/22 06:50:51;;;;;;;10.13;7.90;;;11.90;99.90;;;11.62;85.58;100112.97;4131859;28;20061;-77
2023/04/22 06:52:53;;;;;;;8.18;6.55;;;12.10;99.90;;;11.71;85.20;100119.03;4119463;28;20398;-77
2023/04/22 06:54:54;;;;;;;9.93;6.13;;;12.10;99.90;;;11.68;84.91;100122.00;4119318;28;20031;-77
2023/04/22 06:56:55;;;;;;;7.03;5.88;;;12.10;99.90;;;11.78;84.66;100119.97;4135445;28;20027;-79
2023/04/22 06:58:56;;;;;;;7.53;6.00;;;12.20;99.90;;;11.85;83.93;100118.25;4135379;28;20541;-80
2023/04/22 07:00:57;;;;;;;10.15;8.00;;;12.30;99.90;;;11.84;82.67;100121.91;4137334;28;20030;-80
2023/04/22 07:02:58;;;;;;;10.68;7.07;;;12.30;99.90;;;11.76;82.29;100124.63;4137035;28;20089;-79
2023/04/22 07:04:58;;;;;;;10.63;8.10;;;12.30;99.90;;;11.62;81.90;100115.59;4138260;28;20078;-78
2023/04/22 07:07:00;;;;;;;9.70;7.03;;;12.20;99.90;;;11.48;81.71;100120.84;4123790;28;20092;-78
2023/04/22 07:09:00;;;;;;;8.38;6.70;;;12.00;99.90;;;11.26;81.64;100119.03;4121996;28;20039;-79
2023/04/22 07:11:01;;;;;;;7.40;6.47;;;11.90;99.90;;;11.04;82.21;100120.66;4132851;28;20105;-79
2023/04/22 07:13:02;;;;;;;9.52;7.13;;;11.70;99.90;;;10.86;83.23;100123.56;4130418;28;20022;-77
2023/04/22 07:15:04;;;;;;;9.88;7.18;;;11.50;99.90;;;10.71;83.46;100133.19;4124940;28;20031;-79
2023/04/22 07:17:04;;;;;;;8.98;6.85;;;11.40;99.90;;;10.61;83.83;100145.75;4124277;28;20026;-78
2023/04/22 07:19:05;;;;;;;8.35;6.78;;;11.30;99.90;;;10.57;84.19;100146.28;4128289;28;20041;-79
2023/04/22 07:21:06;;;;;;;9.02;7.07;;;11.30;99.90;;;10.50;84.18;100138.22;4128485;28;20430;-78
2023/04/22 07:23:07;;;;;;;8.50;6.75;;;11.20;99.90;;;10.49;84.29;100158.50;4121857;28;20411;-79
2023/04/22 07:25:08;;;;;;;13.18;7.90;;;11.20;99.90;;;10.48;83.79;100148.13;4136779;28;20109;-78
2023/04/22 07:27:09;;;;;;;11.00;8.57;;;11.20;99.90;;;10.44;83.49;100158.19;4126703;28;20062;-77
2023/04/22 07:29:11;;;;;;;9.02;8.07;;;11.20;99.90;;;10.50;83.13;100162.78;4135876;28;20030;-77
2023/04/22 07:31:12;;;;;;;10.52;7.57;;;11.20;99.90;;;10.52;82.38;100159.97;4125207;28;20050;-78
2023/04/22 07:33:13;;;;;;;9.63;7.82;;;11.20;99.90;;;10.56;82.24;100161.28;4136699;28;20026;-78
2023/04/22 07:35:14;;;;;;;9.80;8.32;;;11.30;99.90;;;10.65;81.24;100162.06;4136518;28;20022;-77
2023/04/22 07:37:15;;;;;;;8.95;7.43;;;11.30;99.90;;;10.72;80.82;100169.09;4137249;28;20057;-77
2023/04/22 07:39:16;;;;;;;10.02;8.43;;;11.40;99.90;;;10.87;80.59;100172.69;4137158;28;20027;-78
2023/04/22 07:41:17;;;;;;;8.48;7.22;;;11.60;99.90;;;11.13;80.09;100172.41;4136059;28;20053;-77
2023/04/22 07:43:18;;;;;;;12.45;8.10;;;11.80;99.90;;;11.57;79.26;100177.91;4134854;28;20026;-77
2023/04/22 07:45:18;;;;;;;8.55;7.22;;;12.20;99.90;;;12.17;79.06;100173.47;4129338;28;20053;-77
2023/04/22 07:47:19;;;;;;;11.65;8.23;;;12.60;99.90;;;12.64;76.10;100175.78;4137225;28;20097;-77
2023/04/22 07:49:20;;;;;;;10.60;7.22;;;13.10;99.90;;;13.00;74.91;100159.13;4138262;28;20034;-77
2023/04/22 07:51:21;;;;;;;9.65;7.05;;;13.40;99.90;;;13.06;73.04;100172.44;4133313;28;20038;-77
2023/04/22 07:53:22;;;;;;;9.80;6.90;;;13.50;99.90;;;13.00;72.99;100169.69;4128496;28;20402;-77
2023/04/22 07:55:23;;;;;;;8.55;6.93;;;13.50;99.90;;;12.89;72.73;100176.31;4132702;28;20026;-78
2023/04/22 07:57:24;;;;;;;6.70;5.72;;;13.50;99.90;;;12.93;72.73;100176.75;4137954;28;20026;-77
2023/04/22 07:59:25;;;;;;;9.50;6.95;;;13.50;99.90;;;12.82;72.63;100174.56;4136811;28;20085;-78
2023/04/22 08:01:26;;;;;;;8.43;6.80;;;13.50;99.90;;;12.82;72.96;100178.03;4127432;28;20034;-78
2023/04/22 08:03:26;;;;;;;9.75;7.60;;;13.50;99.90;;;12.72;72.26;100166.94;4132432;28;20042;-78
2023/04/22 08:05:27;;;;;;;8.45;6.60;;;13.40;99.90;;;12.44;71.36;100173.84;4135076;28;20018;-76
2023/04/22 08:07:28;;;;;;;11.50;7.97;;;13.30;99.90;;;12.37;72.48;100180.84;4131051;28;20030;-78
2023/04/22 08:09:29;;;;;;;8.70;7.03;;;13.20;99.90;;;12.26;72.92;100178.66;4121013;28;20482;-78
2023/04/22 08:11:30;;;;;;;9.48;7.95;;;13.10;99.90;;;12.20;73.78;100193.44;4135295;28;20037;-79
2023/04/22 08:13:31;;;;;;;9.00;6.97;;;13.00;99.90;;;12.08;74.46;100194.88;4123986;28;20071;-77
2023/04/22 08:15:32;;;;;;;11.05;8.20;;;12.90;99.90;;;12.08;75.47;100190.41;4122920;28;20069;-77
2023/04/22 08:17:33;;;;;;;10.32;7.90;;;12.90;99.90;;;12.06;76.06;100183.66;4129926;28;20015;-78
2023/04/22 08:19:33;;;;;;;10.27;7.95;;;12.80;99.90;;;12.11;76.14;100197.16;4135764;28;20026;-77
2023/04/22 08:21:35;;;;;;;9.90;7.75;;;12.80;99.90;;;12.07;76.09;100188.75;4135787;28;20022;-77
2023/04/22 08:23:36;;;;;;;9.55;8.02;;;12.80;99.90;;;12.11;75.49;100191.88;4137076;28;20038;-75
2023/04/22 08:25:37;;;;;;;10.40;7.75;;;12.80;99.90;;;12.10;75.64;100196.31;4131392;28;20023;-76
2023/04/22 08:27:38;;;;;;;11.65;8.35;;;12.80;99.90;;;12.18;76.24;100198.09;4126790;28;20038;-77